createdAt,value
2023-02-13T00:01:43.262Z,3.47
2023-02-13T00:04:09.705Z,3.60
2023-02-13T00:06:36.199Z,3.66
2023-02-13T00:09:03.128Z,3.58
2023-02-13T00:11:29.962Z,3.46
2023-02-13T00:13:58.098Z,3.64
2023-02-13T00:16:24.578Z,3.62
2023-02-13T00:18:51.002Z,3.40
2023-02-13T00:21:18.663Z,3.40
2023-02-13T00:23:45.271Z,3.63
2023-02-13T00:26:13.001Z,3.47
2023-02-13T00:28:40.905Z,3.34
2023-02-13T00:31:09.477Z,3.54
2023-02-13T00:33:36.106Z,3.50
2023-02-13T00:36:05.439Z,3.49
2023-02-13T00:38:33.181Z,3.61
2023-02-13T00:40:59.826Z,3.58
2023-02-13T00:43:27.909Z,3.33
2023-02-13T00:45:54.602Z,3.35
2023-02-13T00:48:21.071Z,3.50
2023-02-13T00:50:49.412Z,3.53
2023-02-13T00:53:15.863Z,3.26
2023-02-13T00:55:42.770Z,3.22
2023-02-13T00:58:09.451Z,3.47
2023-02-13T01:00:36.058Z,3.39
2023-02-13T01:03:03.856Z,3.32
2023-02-13T01:05:30.461Z,3.37
2023-02-13T01:07:57.079Z,3.56
2023-02-13T01:10:23.740Z,3.51
2023-02-13T01:12:50.681Z,3.45
2023-02-13T01:15:17.150Z,3.61
2023-02-13T01:17:43.794Z,3.53
2023-02-13T01:20:11.606Z,3.44
2023-02-13T01:22:38.346Z,3.50
2023-02-13T01:25:05.681Z,3.66
2023-02-13T01:27:32.505Z,3.49
2023-02-13T01:29:59.235Z,3.36
2023-02-13T01:32:26.098Z,3.55
2023-02-13T01:34:52.597Z,3.44
2023-02-13T01:37:19.361Z,3.35
2023-02-13T01:39:45.811Z,3.57
2023-02-13T01:42:16.761Z,3.54
2023-02-13T01:44:46.035Z,3.46
2023-02-13T01:47:15.279Z,3.41
2023-02-13T01:49:42.235Z,3.62
2023-02-13T01:52:10.910Z,3.59
2023-02-13T01:54:37.386Z,3.56
2023-02-13T01:57:23.973Z,3.56
2023-02-13T01:59:56.626Z,3.77
2023-02-13T02:02:23.773Z,3.67
2023-02-13T02:04:50.604Z,3.77
2023-02-13T02:07:20.259Z,3.93
2023-02-13T02:09:46.866Z,3.91
2023-02-13T02:12:25.483Z,3.83
2023-02-13T02:14:53.951Z,4.02
2023-02-13T02:17:22.338Z,4.06
2023-02-13T02:20:05.289Z,3.99
2023-02-13T02:22:39.250Z,3.92
2023-02-13T02:25:24.197Z,4.19
2023-02-13T02:27:50.721Z,4.10
2023-02-13T02:30:20.247Z,4.07
2023-02-13T02:32:46.681Z,4.24
2023-02-13T02:35:20.903Z,4.23
2023-02-13T02:37:47.328Z,4.13
2023-02-13T02:40:14.865Z,4.26
2023-02-13T02:43:07.380Z,4.35
2023-02-13T02:45:52.627Z,4.11
2023-02-13T02:48:40.835Z,3.90
2023-02-13T02:51:14.274Z,4.09
2023-02-13T02:53:46.849Z,3.86
2023-02-13T02:56:38.409Z,3.67
2023-02-13T02:59:26.337Z,3.74
2023-02-13T03:02:16.378Z,3.69
2023-02-13T03:05:04.817Z,3.56
2023-02-13T03:07:31.990Z,3.53
2023-02-13T03:10:20.645Z,3.74
2023-02-13T03:13:21.113Z,3.62
2023-02-13T03:16:08.711Z,3.57
2023-02-13T03:18:56.924Z,3.80
2023-02-13T03:21:42.121Z,3.68
2023-02-13T03:24:21.421Z,3.61
2023-02-13T03:27:08.144Z,3.69
2023-02-13T03:30:01.592Z,3.65
2023-02-13T03:32:43.422Z,3.51
2023-02-13T03:35:32.903Z,3.46
2023-02-13T03:38:05.532Z,3.66
2023-02-13T03:40:38.969Z,3.48
2023-02-13T03:43:16.094Z,3.42
2023-02-13T03:45:55.587Z,3.48
2023-02-13T03:48:46.283Z,3.60
2023-02-13T03:51:16.474Z,3.35
2023-02-13T03:53:45.191Z,3.53
2023-02-13T03:56:32.200Z,3.61
2023-02-13T03:59:18.195Z,3.51
2023-02-13T04:01:48.333Z,3.48
2023-02-13T04:04:17.825Z,3.69
2023-02-13T04:06:53.705Z,3.60
2023-02-13T04:09:20.334Z,3.44
2023-02-13T04:11:55.246Z,3.46
2023-02-13T04:14:29.560Z,3.63
2023-02-13T04:17:07.835Z,3.37
2023-02-13T04:19:34.623Z,3.34
2023-02-13T04:22:02.002Z,3.46
2023-02-13T04:24:28.751Z,3.55
2023-02-13T04:26:55.798Z,3.33
2023-02-13T04:29:22.796Z,3.31
2023-02-13T04:31:49.407Z,3.41
2023-02-13T04:34:16.479Z,3.51
2023-02-13T04:36:42.978Z,3.37
2023-02-13T04:39:10.806Z,3.16
2023-02-13T04:41:37.298Z,3.11
2023-02-13T04:44:04.217Z,3.15
2023-02-13T04:46:31.953Z,3.08
2023-02-13T04:48:58.476Z,2.98
2023-02-13T04:51:25.470Z,3.22
2023-02-13T04:53:52.214Z,3.15
2023-02-13T04:56:19.965Z,2.90
2023-02-13T04:58:46.631Z,2.65
2023-02-13T05:01:16.839Z,2.86
2023-02-13T05:03:43.685Z,2.90
2023-02-13T05:06:10.533Z,2.87
2023-02-13T05:08:38.371Z,2.86
2023-02-13T05:11:06.417Z,3.05
2023-02-13T05:13:33.662Z,2.95
2023-02-13T05:16:00.203Z,2.84
2023-02-13T05:18:26.703Z,2.83
2023-02-13T05:21:11.758Z,2.99
2023-02-13T05:23:38.251Z,2.66
2023-02-13T05:26:05.990Z,2.54
2023-02-13T05:28:50.918Z,2.72
2023-02-13T05:31:17.664Z,2.67
2023-02-13T05:33:44.279Z,2.47
2023-02-13T05:36:10.809Z,2.30
2023-02-13T05:38:37.397Z,2.49
2023-02-13T05:41:05.033Z,2.48
2023-02-13T05:43:31.489Z,2.38
2023-02-13T05:46:02.923Z,2.28
2023-02-13T05:48:29.626Z,2.45
2023-02-13T05:50:56.315Z,2.36
2023-02-13T05:53:24.033Z,2.30
2023-02-13T05:55:52.302Z,2.21
2023-02-13T05:58:20.811Z,2.39
2023-02-13T06:00:47.741Z,2.26
2023-02-13T06:03:15.671Z,2.14
2023-02-13T06:05:42.207Z,2.02
2023-02-13T06:08:08.672Z,2.18
2023-02-13T06:10:36.416Z,2.01
2023-02-13T06:13:03.546Z,2.00
2023-02-13T06:15:30.102Z,1.90
2023-02-13T06:17:56.580Z,1.95
2023-02-13T06:20:23.185Z,1.47
2023-02-13T06:22:50.715Z,1.24
2023-02-13T06:25:18.887Z,1.30
2023-02-13T06:27:51.389Z,1.15
2023-02-13T06:30:18.473Z,0.96
2023-02-13T06:32:46.335Z,0.89
2023-02-13T06:35:13.087Z,0.88
2023-02-13T06:37:39.726Z,1.07
2023-02-13T06:40:08.925Z,0.89
2023-02-13T06:42:35.374Z,0.45
2023-02-13T06:45:02.369Z,0.33
2023-02-13T06:47:28.992Z,0.29
2023-02-13T06:49:55.485Z,0.34
2023-02-13T06:52:22.018Z,0.18
2023-02-13T06:54:49.792Z,0.09
2023-02-13T06:57:17.446Z,0.33
2023-02-13T06:59:43.993Z,0.58
2023-02-13T07:02:13.595Z,0.59
2023-02-13T07:04:40.567Z,0.78
2023-02-13T07:07:07.174Z,0.84
2023-02-13T07:09:33.762Z,0.94
2023-02-13T07:12:02.894Z,0.74
2023-02-13T07:14:29.919Z,0.26
2023-02-13T07:16:56.966Z,0.23
2023-02-13T07:19:23.444Z,0.65
2023-02-13T07:21:50.663Z,0.68
2023-02-13T07:24:17.142Z,0.78
2023-02-13T07:26:43.653Z,1.10
2023-02-13T07:29:11.915Z,1.27
2023-02-13T07:31:39.421Z,1.41
2023-02-13T07:34:06.186Z,1.66
2023-02-13T07:36:32.664Z,1.88
2023-02-13T07:38:59.170Z,1.94
2023-02-13T07:41:27.017Z,2.00
2023-02-13T07:43:55.315Z,2.21
2023-02-13T07:46:21.958Z,2.28
2023-02-13T07:48:49.980Z,2.32
2023-02-13T07:51:16.529Z,2.47
2023-02-13T07:53:42.994Z,2.50
2023-02-13T07:56:11.677Z,2.35
2023-02-13T07:58:41.443Z,2.43
2023-02-13T08:01:08.339Z,2.65
2023-02-13T08:03:34.901Z,2.66
2023-02-13T08:06:01.590Z,2.56
2023-02-13T08:08:28.213Z,2.77
2023-02-13T08:11:13.544Z,2.81
2023-02-13T08:13:41.836Z,2.86
2023-02-13T08:16:09.902Z,2.99
2023-02-13T08:18:36.410Z,3.20
2023-02-13T08:21:03.774Z,3.12
2023-02-13T08:23:30.354Z,3.23
2023-02-13T08:25:59.882Z,3.33
2023-02-13T08:28:26.638Z,3.29
2023-02-13T08:30:53.294Z,3.40
2023-02-13T08:33:19.826Z,3.51
2023-02-13T08:35:46.321Z,3.32
2023-02-13T08:38:12.876Z,3.51
2023-02-13T08:40:39.688Z,3.58
2023-02-13T08:43:06.595Z,3.57
2023-02-13T08:45:33.538Z,3.60
2023-02-13T08:48:00.735Z,3.75
2023-02-13T08:50:27.760Z,3.72
2023-02-13T08:52:54.206Z,3.76
2023-02-13T08:55:22.060Z,3.93
2023-02-13T08:57:48.505Z,3.81
2023-02-13T09:00:15.161Z,3.91
2023-02-13T09:02:41.764Z,4.03
2023-02-13T09:05:08.308Z,3.89
2023-02-13T09:07:34.837Z,4.00
2023-02-13T09:10:01.299Z,4.14
2023-02-13T09:12:27.732Z,3.93
2023-02-13T09:14:55.426Z,4.10
2023-02-13T09:17:23.589Z,4.14
2023-02-13T09:19:51.238Z,4.11
2023-02-13T09:22:18.959Z,4.25
2023-02-13T09:24:45.437Z,4.25
2023-02-13T09:27:11.984Z,4.24
2023-02-13T09:29:38.768Z,4.44
2023-02-13T09:32:07.109Z,4.35
2023-02-13T09:34:33.601Z,4.39
2023-02-13T09:37:01.166Z,4.61
2023-02-13T09:39:27.614Z,4.43
2023-02-13T09:41:56.298Z,4.47
2023-02-13T09:44:51.135Z,4.68
2023-02-13T09:47:36.217Z,4.43
2023-02-13T09:50:05.239Z,4.73
2023-02-13T09:52:36.446Z,4.69
2023-02-13T09:55:04.149Z,4.66
2023-02-13T09:57:44.050Z,4.81
2023-02-13T10:00:19.701Z,4.92
2023-02-13T10:02:58.943Z,4.68
2023-02-13T10:05:43.019Z,4.65
2023-02-13T10:08:29.951Z,4.97
2023-02-13T10:11:15.060Z,4.95
2023-02-13T10:13:42.667Z,4.99
2023-02-13T10:16:12.550Z,5.21
2023-02-13T10:18:50.705Z,5.16
2023-02-13T10:21:20.411Z,5.27
2023-02-13T10:23:52.431Z,5.38
2023-02-13T10:26:20.733Z,5.25
2023-02-13T10:29:11.963Z,5.34
2023-02-13T10:31:39.839Z,5.69
2023-02-13T10:34:11.527Z,5.50
2023-02-13T10:36:41.846Z,5.39
2023-02-13T10:39:24.074Z,5.69
2023-02-13T10:42:18.053Z,5.72
2023-02-13T10:45:04.500Z,5.69
2023-02-13T10:47:30.999Z,6.11
2023-02-13T10:50:04.091Z,5.82
2023-02-13T10:52:33.554Z,5.87
2023-02-13T10:55:22.321Z,5.98
2023-02-13T10:57:48.762Z,5.91
2023-02-13T11:00:33.844Z,6.22
2023-02-13T11:03:00.533Z,6.08
2023-02-13T11:05:37.173Z,6.18
2023-02-13T11:08:04.263Z,6.26
2023-02-13T11:10:31.976Z,6.23
2023-02-13T11:13:15.002Z,6.42
2023-02-13T11:15:42.066Z,6.35
2023-02-13T11:18:19.589Z,6.24
2023-02-13T11:20:48.186Z,6.52
2023-02-13T11:23:35.047Z,6.50
2023-02-13T11:26:04.461Z,6.57
2023-02-13T11:28:33.085Z,6.79
2023-02-13T11:31:11.134Z,6.55
2023-02-13T11:33:37.691Z,6.83
2023-02-13T11:36:06.375Z,6.67
2023-02-13T11:38:33.251Z,6.66
2023-02-13T11:41:07.938Z,6.88
2023-02-13T11:43:45.146Z,6.70
2023-02-13T11:46:18.253Z,6.86
2023-02-13T11:49:06.045Z,6.85
2023-02-13T11:51:40.931Z,6.94
2023-02-13T11:54:19.262Z,6.95
2023-02-13T11:57:04.136Z,6.89
2023-02-13T11:59:33.556Z,7.09
2023-02-13T12:02:16.419Z,7.10
2023-02-13T12:04:43.224Z,6.89
2023-02-13T12:07:20.510Z,7.16
2023-02-13T12:09:50.427Z,7.13
2023-02-13T12:12:25.715Z,7.17
2023-02-13T12:14:52.845Z,7.22
2023-02-13T12:17:31.669Z,7.13
2023-02-13T12:19:59.558Z,7.37
2023-02-13T12:22:38.696Z,7.24
2023-02-13T12:25:05.253Z,7.38
2023-02-13T12:27:48.495Z,7.18
2023-02-13T12:30:25.051Z,7.10
2023-02-13T12:33:00.830Z,7.40
2023-02-13T12:35:34.048Z,7.20
2023-02-13T12:38:20.559Z,7.20
2023-02-13T12:40:46.981Z,7.37
2023-02-13T12:43:26.830Z,7.12
2023-02-13T12:46:09.484Z,7.39
2023-02-13T12:48:39.085Z,7.30
2023-02-13T12:51:11.600Z,7.25
2023-02-13T12:53:52.255Z,7.40
2023-02-13T12:56:36.458Z,7.22
2023-02-13T12:59:08.754Z,7.39
2023-02-13T13:01:48.312Z,7.38
2023-02-13T13:04:15.077Z,7.11
2023-02-13T13:06:44.683Z,7.39
2023-02-13T13:09:15.362Z,7.40
2023-02-13T13:12:08.334Z,7.36
2023-02-13T13:15:08.862Z,7.54
2023-02-13T13:17:35.331Z,7.33
2023-02-13T13:20:12.206Z,7.50
2023-02-13T13:22:43.730Z,7.36
2023-02-13T13:25:29.182Z,7.47
2023-02-13T13:28:12.034Z,7.45
2023-02-13T13:30:39.477Z,7.37
2023-02-13T13:33:06.073Z,7.58
2023-02-13T13:35:33.123Z,7.35
2023-02-13T13:38:06.657Z,7.51
2023-02-13T13:40:44.640Z,7.52
2023-02-13T13:43:13.909Z,7.35
2023-02-13T13:46:01.820Z,7.56
2023-02-13T13:48:41.069Z,7.30
2023-02-13T13:51:09.720Z,7.32
2023-02-13T13:53:38.542Z,7.50
2023-02-13T13:56:06.659Z,7.30
2023-02-13T13:58:45.548Z,7.43
2023-02-13T14:01:17.436Z,7.30
2023-02-13T14:03:50.203Z,7.11
2023-02-13T14:06:18.106Z,7.17
2023-02-13T14:08:44.609Z,7.39
2023-02-13T14:11:26.491Z,7.14
2023-02-13T14:13:53.385Z,7.27
2023-02-13T14:16:41.755Z,7.33
2023-02-13T14:19:24.491Z,7.34
2023-02-13T14:21:51.141Z,7.41
2023-02-13T14:24:19.438Z,7.17
2023-02-13T14:27:05.456Z,7.32
2023-02-13T14:29:33.416Z,6.82
2023-02-13T14:32:00.702Z,6.97
2023-02-13T14:34:31.820Z,7.18
2023-02-13T14:37:20.670Z,6.95
2023-02-13T14:40:07.065Z,7.20
2023-02-13T14:42:35.595Z,6.97
2023-02-13T14:45:05.481Z,7.02
2023-02-13T14:47:35.608Z,7.04
2023-02-13T14:50:03.794Z,6.72
2023-02-13T14:52:34.201Z,7.03
2023-02-13T14:55:05.507Z,6.98
2023-02-13T14:57:36.358Z,6.93
2023-02-13T15:00:24.663Z,6.82
2023-02-13T15:02:56.955Z,6.99
2023-02-13T15:05:27.861Z,6.85
2023-02-13T15:07:59.340Z,6.79
2023-02-13T15:10:25.808Z,6.82
2023-02-13T15:12:59.404Z,6.59
2023-02-13T15:15:31.028Z,6.42
2023-02-13T15:18:19.266Z,6.54
2023-02-13T15:20:46.446Z,6.39
2023-02-13T15:23:19.952Z,6.39
2023-02-13T15:25:46.769Z,6.53
2023-02-13T15:28:20.932Z,6.27
2023-02-13T15:31:13.702Z,6.39
2023-02-13T15:33:51.453Z,6.27
2023-02-13T15:36:18.959Z,6.27
2023-02-13T15:38:46.807Z,6.40
2023-02-13T15:41:13.243Z,5.98
2023-02-13T15:43:39.763Z,6.09
2023-02-13T15:46:18.726Z,5.67
2023-02-13T15:48:45.978Z,5.08
2023-02-13T15:51:22.884Z,5.14
2023-02-13T15:53:56.593Z,5.09
2023-02-13T15:56:23.769Z,5.03
2023-02-13T15:58:51.035Z,5.17
2023-02-13T16:01:17.815Z,5.09
2023-02-13T16:03:48.073Z,5.08
2023-02-13T16:06:16.534Z,5.35
2023-02-13T16:09:01.227Z,5.19
2023-02-13T16:11:40.777Z,5.39
2023-02-13T16:14:22.097Z,5.05
2023-02-13T16:16:56.806Z,4.44
2023-02-13T16:19:27.494Z,4.59
2023-02-13T16:21:55.889Z,4.93
2023-02-13T16:24:24.870Z,5.07
2023-02-13T16:26:51.687Z,5.14
2023-02-13T16:29:19.966Z,5.32
2023-02-13T16:31:48.097Z,5.14
2023-02-13T16:34:20.650Z,5.02
2023-02-13T16:36:47.204Z,5.09
2023-02-13T16:39:21.327Z,4.98
2023-02-13T16:41:48.650Z,4.74
2023-02-13T16:44:30.070Z,4.31
2023-02-13T16:46:57.501Z,4.31
2023-02-13T16:49:25.779Z,3.87
2023-02-13T16:51:52.382Z,3.57
2023-02-13T16:54:31.072Z,3.77
2023-02-13T16:57:04.317Z,3.55
2023-02-13T16:59:49.868Z,3.55
2023-02-13T17:02:29.535Z,3.69
2023-02-13T17:05:08.198Z,3.59
2023-02-13T17:07:36.206Z,3.70
2023-02-13T17:10:06.405Z,3.59
2023-02-13T17:12:36.610Z,3.40
2023-02-13T17:15:06.432Z,3.45
2023-02-13T17:17:32.934Z,3.24
2023-02-13T17:20:00.945Z,3.11
2023-02-13T17:22:35.584Z,3.37
2023-02-13T17:25:05.162Z,3.49
2023-02-13T17:27:31.793Z,3.46
2023-02-13T17:29:59.585Z,3.61
2023-02-13T17:32:26.857Z,3.47
2023-02-13T17:34:53.578Z,3.34
2023-02-13T17:37:21.770Z,3.43
2023-02-13T17:39:48.417Z,3.42
2023-02-13T17:42:16.152Z,3.37
2023-02-13T17:44:42.658Z,3.55
2023-02-13T17:47:09.105Z,3.43
2023-02-13T17:49:35.627Z,3.22
2023-02-13T17:52:02.110Z,3.17
2023-02-13T17:54:28.606Z,3.23
2023-02-13T17:56:56.285Z,2.90
2023-02-13T17:59:25.420Z,2.76
2023-02-13T18:01:52.577Z,3.00
2023-02-13T18:04:19.069Z,2.76
2023-02-13T18:06:45.562Z,2.82
2023-02-13T18:09:12.424Z,2.82
2023-02-13T18:11:38.884Z,2.95
2023-02-13T18:14:07.814Z,2.43
2023-02-13T18:16:34.321Z,2.43
2023-02-13T18:19:00.881Z,2.65
2023-02-13T18:21:27.334Z,2.81
2023-02-13T18:23:54.538Z,3.00
2023-02-13T18:26:20.989Z,3.27
2023-02-13T18:28:52.193Z,3.43
2023-02-13T18:31:19.443Z,3.71
2023-02-13T18:33:46.090Z,4.11
2023-02-13T18:36:12.842Z,4.11
2023-02-13T18:38:39.561Z,3.98
2023-02-13T18:41:06.009Z,3.93
2023-02-13T18:43:33.926Z,4.19
2023-02-13T18:46:01.418Z,4.21
2023-02-13T18:48:29.078Z,4.20
2023-02-13T18:50:55.683Z,4.42
2023-02-13T18:53:22.330Z,4.48
2023-02-13T18:55:48.814Z,4.56
2023-02-13T18:58:15.494Z,4.62
2023-02-13T19:00:42.000Z,4.62
2023-02-13T19:03:08.485Z,4.82
2023-02-13T19:05:39.742Z,4.61
2023-02-13T19:08:06.258Z,4.38
2023-02-13T19:10:32.741Z,4.50
2023-02-13T19:12:59.229Z,4.73
2023-02-13T19:15:26.946Z,4.64
2023-02-13T19:17:57.285Z,4.66
2023-02-13T19:20:25.334Z,4.89
2023-02-13T19:22:51.908Z,4.76
2023-02-13T19:25:20.885Z,4.60
2023-02-13T19:27:47.417Z,4.66
2023-02-13T19:30:15.293Z,4.79
2023-02-13T19:32:43.116Z,5.02
2023-02-13T19:35:09.757Z,4.91
2023-02-13T19:37:43.809Z,5.05
2023-02-13T19:40:11.317Z,5.12
2023-02-13T19:42:40.008Z,5.02
2023-02-13T19:45:06.775Z,5.01
2023-02-13T19:47:34.777Z,5.03
2023-02-13T19:50:01.227Z,5.17
2023-02-13T19:52:27.876Z,5.08
2023-02-13T19:54:54.401Z,5.17
2023-02-13T19:57:22.087Z,5.24
2023-02-13T19:59:48.639Z,5.13
2023-02-13T20:02:16.814Z,5.09
2023-02-13T20:04:44.769Z,5.30
2023-02-13T20:07:11.309Z,5.37
2023-02-13T20:09:39.094Z,5.29
2023-02-13T20:12:05.966Z,5.44
2023-02-13T20:14:33.163Z,5.38
2023-02-13T20:16:59.754Z,5.39
2023-02-13T20:19:27.933Z,5.25
2023-02-13T20:21:54.534Z,5.25
2023-02-13T20:24:21.074Z,5.39
2023-02-13T20:26:47.616Z,5.40
2023-02-13T20:29:15.955Z,5.25
2023-02-13T20:31:42.898Z,5.11
2023-02-13T20:34:10.079Z,5.27
2023-02-13T20:36:36.570Z,5.11
2023-02-13T20:39:05.028Z,4.36
2023-02-13T20:41:32.408Z,4.14
2023-02-13T20:44:00.473Z,3.66
2023-02-13T20:46:30.429Z,3.18
2023-02-13T20:48:58.102Z,2.95
2023-02-13T20:51:25.778Z,3.08
2023-02-13T20:53:52.228Z,2.87
2023-02-13T20:56:20.981Z,2.72
2023-02-13T20:58:48.556Z,2.68
2023-02-13T21:01:17.214Z,2.91
2023-02-13T21:03:44.141Z,2.68
2023-02-13T21:06:11.341Z,2.57
2023-02-13T21:08:38.236Z,2.71
2023-02-13T21:11:05.605Z,2.82
2023-02-13T21:13:33.221Z,3.54
2023-02-13T21:16:07.805Z,3.70
2023-02-13T21:18:35.586Z,3.98
2023-02-13T21:21:02.379Z,4.05
2023-02-13T21:23:30.138Z,4.00
2023-02-13T21:25:58.131Z,4.22
2023-02-13T21:28:24.663Z,4.29
2023-02-13T21:30:51.231Z,4.15
2023-02-13T21:33:17.756Z,4.24
2023-02-13T21:35:44.351Z,4.31
2023-02-13T21:38:10.793Z,3.72
2023-02-13T21:40:38.753Z,3.29
2023-02-13T21:43:05.224Z,3.19
2023-02-13T21:45:32.053Z,3.15
2023-02-13T21:47:58.610Z,2.81
2023-02-13T21:50:25.114Z,2.48
2023-02-13T21:52:51.576Z,2.48
2023-02-13T21:55:18.149Z,2.47
2023-02-13T21:57:45.966Z,2.33
2023-02-13T22:00:12.897Z,2.13
2023-02-13T22:02:39.784Z,2.28
2023-02-13T22:05:06.429Z,2.28
2023-02-13T22:07:52.852Z,2.03
2023-02-13T22:10:19.305Z,1.76
2023-02-13T22:12:50.013Z,1.95
2023-02-13T22:15:16.939Z,1.93
2023-02-13T22:17:43.421Z,1.79
2023-02-13T22:20:10.085Z,1.80
2023-02-13T22:22:37.723Z,1.93
2023-02-13T22:25:04.199Z,1.94
2023-02-13T22:27:30.868Z,1.92
2023-02-13T22:29:57.428Z,1.91
2023-02-13T22:32:23.973Z,1.99
2023-02-13T22:34:50.610Z,1.72
2023-02-13T22:37:17.060Z,1.48
2023-02-13T22:39:44.779Z,1.32
2023-02-13T22:42:11.297Z,1.56
2023-02-13T22:44:39.208Z,1.54
2023-02-13T22:47:07.397Z,1.45
2023-02-13T22:49:33.908Z,1.41
2023-02-13T22:52:00.477Z,1.54
2023-02-13T22:54:26.913Z,1.54
2023-02-13T22:56:53.340Z,1.32
2023-02-13T22:59:19.886Z,1.29
2023-02-13T23:01:46.399Z,1.36
2023-02-13T23:04:12.921Z,1.17
2023-02-13T23:06:39.656Z,1.15
2023-02-13T23:09:06.108Z,1.19
2023-02-13T23:11:51.115Z,1.33
2023-02-13T23:14:18.952Z,1.27
2023-02-13T23:17:04.166Z,1.25
2023-02-13T23:19:30.774Z,1.00
2023-02-13T23:21:58.838Z,1.04
2023-02-13T23:24:25.273Z,0.58
2023-02-13T23:26:52.144Z,0.36
2023-02-13T23:29:18.643Z,0.28
2023-02-13T23:31:45.214Z,0.04
2023-02-13T23:34:11.869Z,0.21
2023-02-13T23:36:38.319Z,0.22
2023-02-13T23:39:04.823Z,0.15
2023-02-13T23:41:31.277Z,0.15
2023-02-13T23:43:57.778Z,0.31
2023-02-13T23:46:24.300Z,0.26
2023-02-13T23:48:50.813Z,0.26
2023-02-13T23:51:19.380Z,0.39
2023-02-13T23:53:45.861Z,0.42
2023-02-13T23:56:13.388Z,0.36
2023-02-13T23:58:39.917Z,0.15
